sensor_id;sensor_type;location;lat;lon;timestamp;temperature;humidity
66257;DHT22;53049;43.446;3.698;2023-05-27T00:01:18;17.90;1.00
66257;DHT22;53049;43.446;3.698;2023-05-27T00:03:45;17.80;1.00
66257;DHT22;53049;43.446;3.698;2023-05-27T00:06:11;17.80;1.00
66257;DHT22;53049;43.446;3.698;2023-05-27T00:08:36;17.70;1.00
66257;DHT22;53049;43.446;3.698;2023-05-27T00:11:02;17.80;1.00
66257;DHT22;53049;43.446;3.698;2023-05-27T00:13:28;17.80;1.00
66257;DHT22;53049;43.446;3.698;2023-05-27T00:15:53;17.90;1.00
66257;DHT22;53049;43.446;3.698;2023-05-27T00:18:19;17.80;1.00
66257;DHT22;53049;43.446;3.698;2023-05-27T00:20:45;17.80;1.00
66257;DHT22;53049;43.446;3.698;2023-05-27T00:23:11;17.80;1.00
66257;DHT22;53049;43.446;3.698;2023-05-27T00:25:37;17.80;1.00
66257;DHT22;53049;43.446;3.698;2023-05-27T00:28:02;17.80;1.00
66257;DHT22;53049;43.446;3.698;2023-05-27T00:30:28;17.70;1.00
66257;DHT22;53049;43.446;3.698;2023-05-27T00:32:54;17.80;1.00
66257;DHT22;53049;43.446;3.698;2023-05-27T00:35:20;17.70;1.00
66257;DHT22;53049;43.446;3.698;2023-05-27T00:37:46;17.60;1.00
66257;DHT22;53049;43.446;3.698;2023-05-27T00:40:12;17.60;1.00
66257;DHT22;53049;43.446;3.698;2023-05-27T00:42:39;17.60;1.00
66257;DHT22;53049;43.446;3.698;2023-05-27T00:45:05;17.50;1.00
66257;DHT22;53049;43.446;3.698;2023-05-27T00:47:33;17.50;1.00
66257;DHT22;53049;43.446;3.698;2023-05-27T00:49:59;17.50;1.00
66257;DHT22;53049;43.446;3.698;2023-05-27T00:52:25;17.50;1.00
66257;DHT22;53049;43.446;3.698;2023-05-27T00:54:52;17.40;1.00
66257;DHT22;53049;43.446;3.698;2023-05-27T00:57:19;17.40;1.00
66257;DHT22;53049;43.446;3.698;2023-05-27T00:59:44;17.30;1.00
66257;DHT22;53049;43.446;3.698;2023-05-27T01:02:11;17.30;1.00
66257;DHT22;53049;43.446;3.698;2023-05-27T01:04:36;17.30;1.00
66257;DHT22;53049;43.446;3.698;2023-05-27T01:09:53;17.20;1.00
66257;DHT22;53049;43.446;3.698;2023-05-27T01:15:05;17.20;1.00
66257;DHT22;53049;43.446;3.698;2023-05-27T01:17:33;17.30;1.00
66257;DHT22;53049;43.446;3.698;2023-05-27T01:20:03;17.20;1.00
66257;DHT22;53049;43.446;3.698;2023-05-27T01:22:31;17.20;1.00
66257;DHT22;53049;43.446;3.698;2023-05-27T01:24:57;17.30;1.00
66257;DHT22;53049;43.446;3.698;2023-05-27T01:27:23;17.20;1.00
66257;DHT22;53049;43.446;3.698;2023-05-27T01:29:53;17.20;1.00
66257;DHT22;53049;43.446;3.698;2023-05-27T01:35:04;17.20;1.00
66257;DHT22;53049;43.446;3.698;2023-05-27T01:37:35;17.20;1.00
66257;DHT22;53049;43.446;3.698;2023-05-27T01:40:02;17.20;1.00
66257;DHT22;53049;43.446;3.698;2023-05-27T01:42:31;17.20;1.00
66257;DHT22;53049;43.446;3.698;2023-05-27T01:44:58;17.10;1.00
66257;DHT22;53049;43.446;3.698;2023-05-27T01:47:25;17.20;1.00
66257;DHT22;53049;43.446;3.698;2023-05-27T01:49:52;17.10;1.00
66257;DHT22;53049;43.446;3.698;2023-05-27T01:52:18;17.00;1.00
66257;DHT22;53049;43.446;3.698;2023-05-27T01:54:43;17.00;1.00
66257;DHT22;53049;43.446;3.698;2023-05-27T01:57:09;16.90;1.00
66257;DHT22;53049;43.446;3.698;2023-05-27T01:59:35;16.80;1.00
66257;DHT22;53049;43.446;3.698;2023-05-27T02:02:00;16.80;1.00
66257;DHT22;53049;43.446;3.698;2023-05-27T02:04:26;16.70;1.00
66257;DHT22;53049;43.446;3.698;2023-05-27T02:06:52;16.70;1.00
66257;DHT22;53049;43.446;3.698;2023-05-27T02:09:17;16.70;1.00
66257;DHT22;53049;43.446;3.698;2023-05-27T02:11:43;16.70;1.00
66257;DHT22;53049;43.446;3.698;2023-05-27T02:14:08;16.80;1.00
66257;DHT22;53049;43.446;3.698;2023-05-27T02:16:34;16.90;1.00
66257;DHT22;53049;43.446;3.698;2023-05-27T02:19:03;17.00;1.00
66257;DHT22;53049;43.446;3.698;2023-05-27T02:21:30;17.00;1.00
66257;DHT22;53049;43.446;3.698;2023-05-27T02:23:55;17.00;1.00
66257;DHT22;53049;43.446;3.698;2023-05-27T02:26:21;17.20;1.00
66257;DHT22;53049;43.446;3.698;2023-05-27T02:28:47;17.10;1.00
66257;DHT22;53049;43.446;3.698;2023-05-27T02:31:13;17.10;1.00
66257;DHT22;53049;43.446;3.698;2023-05-27T02:33:38;17.10;1.00
66257;DHT22;53049;43.446;3.698;2023-05-27T02:36:04;17.10;1.00
66257;DHT22;53049;43.446;3.698;2023-05-27T02:38:31;17.00;1.00
66257;DHT22;53049;43.446;3.698;2023-05-27T02:40:57;17.00;1.00
66257;DHT22;53049;43.446;3.698;2023-05-27T02:43:23;17.00;1.00
66257;DHT22;53049;43.446;3.698;2023-05-27T02:45:48;17.10;1.00
66257;DHT22;53049;43.446;3.698;2023-05-27T02:48:14;17.10;1.00
66257;DHT22;53049;43.446;3.698;2023-05-27T02:50:40;17.00;1.00
66257;DHT22;53049;43.446;3.698;2023-05-27T02:53:05;16.80;1.00
66257;DHT22;53049;43.446;3.698;2023-05-27T02:55:31;16.80;1.00
66257;DHT22;53049;43.446;3.698;2023-05-27T02:57:56;16.90;1.00
66257;DHT22;53049;43.446;3.698;2023-05-27T03:00:22;16.90;1.00
66257;DHT22;53049;43.446;3.698;2023-05-27T03:02:48;16.90;1.00
66257;DHT22;53049;43.446;3.698;2023-05-27T03:05:14;17.00;1.00
66257;DHT22;53049;43.446;3.698;2023-05-27T03:07:39;17.00;1.00
66257;DHT22;53049;43.446;3.698;2023-05-27T03:10:07;17.10;1.00
66257;DHT22;53049;43.446;3.698;2023-05-27T03:12:33;17.10;1.00
66257;DHT22;53049;43.446;3.698;2023-05-27T03:14:59;17.10;1.00
66257;DHT22;53049;43.446;3.698;2023-05-27T03:17:24;17.00;1.00
66257;DHT22;53049;43.446;3.698;2023-05-27T03:19:50;16.90;1.00
66257;DHT22;53049;43.446;3.698;2023-05-27T03:22:16;16.90;1.00
66257;DHT22;53049;43.446;3.698;2023-05-27T03:24:42;16.80;1.00
66257;DHT22;53049;43.446;3.698;2023-05-27T03:27:07;16.80;1.00
66257;DHT22;53049;43.446;3.698;2023-05-27T03:29:33;16.70;1.00
66257;DHT22;53049;43.446;3.698;2023-05-27T03:31:59;16.70;1.00
66257;DHT22;53049;43.446;3.698;2023-05-27T03:34:25;16.60;1.00
66257;DHT22;53049;43.446;3.698;2023-05-27T03:36:50;16.50;1.00
66257;DHT22;53049;43.446;3.698;2023-05-27T03:39:17;16.40;1.00
66257;DHT22;53049;43.446;3.698;2023-05-27T03:41:43;16.40;1.00
66257;DHT22;53049;43.446;3.698;2023-05-27T03:44:09;16.30;1.00
66257;DHT22;53049;43.446;3.698;2023-05-27T03:46:35;16.30;1.00
66257;DHT22;53049;43.446;3.698;2023-05-27T03:49:01;16.30;1.00
66257;DHT22;53049;43.446;3.698;2023-05-27T03:51:27;16.20;1.00
66257;DHT22;53049;43.446;3.698;2023-05-27T03:53:52;16.30;1.00
66257;DHT22;53049;43.446;3.698;2023-05-27T03:56:18;16.30;1.00
66257;DHT22;53049;43.446;3.698;2023-05-27T03:58:44;16.30;1.00
66257;DHT22;53049;43.446;3.698;2023-05-27T04:01:10;16.40;1.00
66257;DHT22;53049;43.446;3.698;2023-05-27T04:03:36;16.40;1.00
66257;DHT22;53049;43.446;3.698;2023-05-27T04:06:03;16.40;1.00
66257;DHT22;53049;43.446;3.698;2023-05-27T04:08:28;16.40;1.00
66257;DHT22;53049;43.446;3.698;2023-05-27T04:10:55;16.40;1.00
66257;DHT22;53049;43.446;3.698;2023-05-27T04:13:21;16.40;1.00
66257;DHT22;53049;43.446;3.698;2023-05-27T04:15:47;16.40;1.00
66257;DHT22;53049;43.446;3.698;2023-05-27T04:18:14;16.40;1.00
66257;DHT22;53049;43.446;3.698;2023-05-27T04:20:40;16.40;1.00
66257;DHT22;53049;43.446;3.698;2023-05-27T04:23:09;16.40;1.00
66257;DHT22;53049;43.446;3.698;2023-05-27T04:25:36;16.40;1.00
66257;DHT22;53049;43.446;3.698;2023-05-27T04:28:02;16.40;1.00
66257;DHT22;53049;43.446;3.698;2023-05-27T04:30:32;16.30;1.00
66257;DHT22;53049;43.446;3.698;2023-05-27T04:32:59;16.20;1.00
66257;DHT22;53049;43.446;3.698;2023-05-27T04:35:25;16.30;1.00
66257;DHT22;53049;43.446;3.698;2023-05-27T04:37:51;16.20;1.00
66257;DHT22;53049;43.446;3.698;2023-05-27T04:40:17;16.20;1.00
66257;DHT22;53049;43.446;3.698;2023-05-27T04:42:43;16.30;1.00
66257;DHT22;53049;43.446;3.698;2023-05-27T04:45:10;16.30;1.00
66257;DHT22;53049;43.446;3.698;2023-05-27T04:47:38;16.20;1.00
66257;DHT22;53049;43.446;3.698;2023-05-27T04:50:07;16.30;1.00
66257;DHT22;53049;43.446;3.698;2023-05-27T04:52:33;16.30;1.00
66257;DHT22;53049;43.446;3.698;2023-05-27T04:55:05;16.30;1.00
66257;DHT22;53049;43.446;3.698;2023-05-27T04:57:32;16.30;1.00
66257;DHT22;53049;43.446;3.698;2023-05-27T04:59:58;16.30;1.00
66257;DHT22;53049;43.446;3.698;2023-05-27T05:02:40;16.40;1.00
66257;DHT22;53049;43.446;3.698;2023-05-27T05:05:08;16.40;1.00
66257;DHT22;53049;43.446;3.698;2023-05-27T05:07:34;16.40;1.00
66257;DHT22;53049;43.446;3.698;2023-05-27T05:10:04;16.40;1.00
66257;DHT22;53049;43.446;3.698;2023-05-27T05:12:30;16.40;1.00
66257;DHT22;53049;43.446;3.698;2023-05-27T05:14:56;16.40;1.00
66257;DHT22;53049;43.446;3.698;2023-05-27T05:17:22;16.50;1.00
66257;DHT22;53049;43.446;3.698;2023-05-27T05:19:49;16.50;1.00
66257;DHT22;53049;43.446;3.698;2023-05-27T05:22:15;16.50;1.00
66257;DHT22;53049;43.446;3.698;2023-05-27T05:24:47;16.50;1.00
66257;DHT22;53049;43.446;3.698;2023-05-27T05:27:12;16.60;1.00
66257;DHT22;53049;43.446;3.698;2023-05-27T05:29:38;16.60;1.00
66257;DHT22;53049;43.446;3.698;2023-05-27T05:32:05;16.60;1.00
66257;DHT22;53049;43.446;3.698;2023-05-27T05:34:30;16.60;1.00
66257;DHT22;53049;43.446;3.698;2023-05-27T05:36:56;16.70;1.00
66257;DHT22;53049;43.446;3.698;2023-05-27T05:39:22;16.70;1.00
66257;DHT22;53049;43.446;3.698;2023-05-27T05:41:48;16.80;1.00
66257;DHT22;53049;43.446;3.698;2023-05-27T05:44:14;16.80;1.00
66257;DHT22;53049;43.446;3.698;2023-05-27T05:46:40;16.90;1.00
66257;DHT22;53049;43.446;3.698;2023-05-27T05:49:06;16.90;1.00
66257;DHT22;53049;43.446;3.698;2023-05-27T05:51:31;16.90;1.00
66257;DHT22;53049;43.446;3.698;2023-05-27T05:53:57;17.00;1.00
66257;DHT22;53049;43.446;3.698;2023-05-27T05:56:23;17.10;1.00
66257;DHT22;53049;43.446;3.698;2023-05-27T05:58:51;17.10;1.00
66257;DHT22;53049;43.446;3.698;2023-05-27T06:01:17;17.20;1.00
66257;DHT22;53049;43.446;3.698;2023-05-27T06:03:43;17.30;1.00
66257;DHT22;53049;43.446;3.698;2023-05-27T06:06:09;17.30;1.00
66257;DHT22;53049;43.446;3.698;2023-05-27T06:08:35;17.40;1.00
66257;DHT22;53049;43.446;3.698;2023-05-27T06:11:01;17.50;1.00
66257;DHT22;53049;43.446;3.698;2023-05-27T06:13:26;17.50;1.00
66257;DHT22;53049;43.446;3.698;2023-05-27T06:15:52;17.60;1.00
66257;DHT22;53049;43.446;3.698;2023-05-27T06:18:18;17.70;1.00
66257;DHT22;53049;43.446;3.698;2023-05-27T06:20:43;17.70;1.00
66257;DHT22;53049;43.446;3.698;2023-05-27T06:23:09;17.70;1.00
66257;DHT22;53049;43.446;3.698;2023-05-27T06:25:35;17.70;1.00
66257;DHT22;53049;43.446;3.698;2023-05-27T06:28:00;17.80;1.00
66257;DHT22;53049;43.446;3.698;2023-05-27T06:30:27;17.80;1.00
66257;DHT22;53049;43.446;3.698;2023-05-27T06:32:52;17.90;1.00
66257;DHT22;53049;43.446;3.698;2023-05-27T06:35:18;17.90;1.00
66257;DHT22;53049;43.446;3.698;2023-05-27T06:37:44;17.90;1.00
66257;DHT22;53049;43.446;3.698;2023-05-27T06:40:10;18.00;1.00
66257;DHT22;53049;43.446;3.698;2023-05-27T06:42:37;18.10;1.00
66257;DHT22;53049;43.446;3.698;2023-05-27T06:45:06;18.20;1.00
66257;DHT22;53049;43.446;3.698;2023-05-27T06:47:31;18.30;1.00
66257;DHT22;53049;43.446;3.698;2023-05-27T06:49:57;18.30;1.00
66257;DHT22;53049;43.446;3.698;2023-05-27T06:52:23;18.40;1.00
66257;DHT22;53049;43.446;3.698;2023-05-27T06:54:49;18.40;1.00
66257;DHT22;53049;43.446;3.698;2023-05-27T06:57:15;18.50;1.00
66257;DHT22;53049;43.446;3.698;2023-05-27T06:59:40;18.50;1.00
66257;DHT22;53049;43.446;3.698;2023-05-27T07:02:06;18.50;1.00
66257;DHT22;53049;43.446;3.698;2023-05-27T07:04:32;18.60;1.00
66257;DHT22;53049;43.446;3.698;2023-05-27T07:06:58;18.80;1.00
66257;DHT22;53049;43.446;3.698;2023-05-27T07:09:24;18.90;1.00
66257;DHT22;53049;43.446;3.698;2023-05-27T07:11:50;19.00;1.00
66257;DHT22;53049;43.446;3.698;2023-05-27T07:14:16;19.20;1.00
66257;DHT22;53049;43.446;3.698;2023-05-27T07:16:42;19.30;1.00
66257;DHT22;53049;43.446;3.698;2023-05-27T07:19:07;19.40;1.00
66257;DHT22;53049;43.446;3.698;2023-05-27T07:21:33;19.60;1.00
66257;DHT22;53049;43.446;3.698;2023-05-27T07:24:00;19.90;1.00
66257;DHT22;53049;43.446;3.698;2023-05-27T07:26:32;20.70;1.00
66257;DHT22;53049;43.446;3.698;2023-05-27T07:28:59;21.90;1.00
66257;DHT22;53049;43.446;3.698;2023-05-27T07:31:26;22.90;1.00
66257;DHT22;53049;43.446;3.698;2023-05-27T07:33:52;23.40;1.00
66257;DHT22;53049;43.446;3.698;2023-05-27T07:36:18;24.20;1.00
66257;DHT22;53049;43.446;3.698;2023-05-27T07:38:44;25.10;1.00
66257;DHT22;53049;43.446;3.698;2023-05-27T07:41:12;25.50;1.00
66257;DHT22;53049;43.446;3.698;2023-05-27T07:43:38;26.10;1.00
66257;DHT22;53049;43.446;3.698;2023-05-27T07:46:04;26.60;1.00
66257;DHT22;53049;43.446;3.698;2023-05-27T07:48:30;26.90;1.00
66257;DHT22;53049;43.446;3.698;2023-05-27T07:50:56;27.10;1.00
66257;DHT22;53049;43.446;3.698;2023-05-27T07:53:22;26.90;1.00
66257;DHT22;53049;43.446;3.698;2023-05-27T07:55:47;27.90;1.00
66257;DHT22;53049;43.446;3.698;2023-05-27T07:58:13;28.90;1.00
66257;DHT22;53049;43.446;3.698;2023-05-27T08:00:39;29.30;1.00
66257;DHT22;53049;43.446;3.698;2023-05-27T08:03:05;30.20;1.00
66257;DHT22;53049;43.446;3.698;2023-05-27T08:05:31;30.70;1.00
66257;DHT22;53049;43.446;3.698;2023-05-27T08:07:57;31.70;1.00
66257;DHT22;53049;43.446;3.698;2023-05-27T08:10:23;32.40;1.00
66257;DHT22;53049;43.446;3.698;2023-05-27T08:12:49;31.80;1.00
66257;DHT22;53049;43.446;3.698;2023-05-27T08:15:14;30.80;1.00
66257;DHT22;53049;43.446;3.698;2023-05-27T08:17:40;32.30;1.00
66257;DHT22;53049;43.446;3.698;2023-05-27T08:20:08;33.40;1.00
66257;DHT22;53049;43.446;3.698;2023-05-27T08:22:33;34.50;1.00
66257;DHT22;53049;43.446;3.698;2023-05-27T08:24:59;34.90;1.00
66257;DHT22;53049;43.446;3.698;2023-05-27T08:27:50;31.60;1.00
66257;DHT22;53049;43.446;3.698;2023-05-27T08:30:17;30.00;1.00
66257;DHT22;53049;43.446;3.698;2023-05-27T08:32:45;29.60;1.00
66257;DHT22;53049;43.446;3.698;2023-05-27T08:35:11;28.50;1.00
66257;DHT22;53049;43.446;3.698;2023-05-27T08:37:37;28.20;1.00
66257;DHT22;53049;43.446;3.698;2023-05-27T08:40:06;27.30;1.00
66257;DHT22;53049;43.446;3.698;2023-05-27T08:42:33;27.10;1.00
66257;DHT22;53049;43.446;3.698;2023-05-27T08:44:59;26.80;1.00
66257;DHT22;53049;43.446;3.698;2023-05-27T08:47:27;27.00;1.00
66257;DHT22;53049;43.446;3.698;2023-05-27T08:49:53;27.10;1.00
66257;DHT22;53049;43.446;3.698;2023-05-27T08:52:19;27.10;1.00
66257;DHT22;53049;43.446;3.698;2023-05-27T08:54:48;27.60;1.00
66257;DHT22;53049;43.446;3.698;2023-05-27T08:57:17;27.60;1.00
66257;DHT22;53049;43.446;3.698;2023-05-27T08:59:44;27.30;1.00
66257;DHT22;53049;43.446;3.698;2023-05-27T09:02:14;27.10;1.00
66257;DHT22;53049;43.446;3.698;2023-05-27T09:04:40;27.20;1.00
66257;DHT22;53049;43.446;3.698;2023-05-27T09:07:09;27.20;1.00
66257;DHT22;53049;43.446;3.698;2023-05-27T09:09:35;26.50;1.00
66257;DHT22;53049;43.446;3.698;2023-05-27T09:12:02;26.50;1.00
66257;DHT22;53049;43.446;3.698;2023-05-27T09:14:29;26.70;1.00
66257;DHT22;53049;43.446;3.698;2023-05-27T09:16:55;26.90;1.00
66257;DHT22;53049;43.446;3.698;2023-05-27T09:19:23;27.90;1.00
66257;DHT22;53049;43.446;3.698;2023-05-27T09:21:52;27.90;1.00
66257;DHT22;53049;43.446;3.698;2023-05-27T09:24:18;28.30;1.00
66257;DHT22;53049;43.446;3.698;2023-05-27T09:26:44;28.00;1.00
66257;DHT22;53049;43.446;3.698;2023-05-27T09:29:10;28.30;1.00
66257;DHT22;53049;43.446;3.698;2023-05-27T09:31:40;28.70;1.00
66257;DHT22;53049;43.446;3.698;2023-05-27T09:34:13;28.70;1.00
66257;DHT22;53049;43.446;3.698;2023-05-27T09:36:47;28.40;1.00
66257;DHT22;53049;43.446;3.698;2023-05-27T09:39:18;28.50;1.00
66257;DHT22;53049;43.446;3.698;2023-05-27T09:41:44;28.60;1.00
66257;DHT22;53049;43.446;3.698;2023-05-27T09:44:15;28.00;1.00
66257;DHT22;53049;43.446;3.698;2023-05-27T09:46:44;28.00;1.00
66257;DHT22;53049;43.446;3.698;2023-05-27T09:49:10;28.00;1.00
66257;DHT22;53049;43.446;3.698;2023-05-27T09:51:38;28.20;1.00
66257;DHT22;53049;43.446;3.698;2023-05-27T09:54:06;28.20;1.00
66257;DHT22;53049;43.446;3.698;2023-05-27T09:56:33;28.50;1.00
66257;DHT22;53049;43.446;3.698;2023-05-27T09:58:59;28.90;1.00
66257;DHT22;53049;43.446;3.698;2023-05-27T10:01:27;29.10;1.00
66257;DHT22;53049;43.446;3.698;2023-05-27T10:03:57;29.20;1.00
66257;DHT22;53049;43.446;3.698;2023-05-27T10:06:24;29.20;1.00
66257;DHT22;53049;43.446;3.698;2023-05-27T10:08:50;29.20;1.00
66257;DHT22;53049;43.446;3.698;2023-05-27T10:11:22;28.90;1.00
66257;DHT22;53049;43.446;3.698;2023-05-27T10:13:49;28.40;1.00
66257;DHT22;53049;43.446;3.698;2023-05-27T10:16:23;28.50;1.00
66257;DHT22;53049;43.446;3.698;2023-05-27T10:18:53;28.90;1.00
66257;DHT22;53049;43.446;3.698;2023-05-27T10:21:20;28.80;1.00
66257;DHT22;53049;43.446;3.698;2023-05-27T10:23:59;28.60;1.00
66257;DHT22;53049;43.446;3.698;2023-05-27T10:26:45;28.20;1.00
66257;DHT22;53049;43.446;3.698;2023-05-27T10:29:12;28.60;1.00
66257;DHT22;53049;43.446;3.698;2023-05-27T10:32:04;28.80;1.00
66257;DHT22;53049;43.446;3.698;2023-05-27T10:34:35;28.50;1.00
66257;DHT22;53049;43.446;3.698;2023-05-27T10:37:01;28.40;1.00
66257;DHT22;53049;43.446;3.698;2023-05-27T10:39:27;27.80;1.00
66257;DHT22;53049;43.446;3.698;2023-05-27T10:41:54;27.60;1.00
66257;DHT22;53049;43.446;3.698;2023-05-27T10:49:35;27.10;1.00
66257;DHT22;53049;43.446;3.698;2023-05-27T10:52:08;27.10;1.00
66257;DHT22;53049;43.446;3.698;2023-05-27T10:54:45;27.00;1.00
66257;DHT22;53049;43.446;3.698;2023-05-27T10:57:12;27.20;1.00
66257;DHT22;53049;43.446;3.698;2023-05-27T10:59:48;27.20;1.00
66257;DHT22;53049;43.446;3.698;2023-05-27T11:02:15;27.20;1.00
66257;DHT22;53049;43.446;3.698;2023-05-27T11:04:40;27.10;1.00
66257;DHT22;53049;43.446;3.698;2023-05-27T11:07:06;27.20;1.00
66257;DHT22;53049;43.446;3.698;2023-05-27T11:09:45;27.20;1.00
66257;DHT22;53049;43.446;3.698;2023-05-27T11:12:16;27.00;1.00
66257;DHT22;53049;43.446;3.698;2023-05-27T11:14:50;27.00;1.00
66257;DHT22;53049;43.446;3.698;2023-05-27T11:17:16;26.90;1.00
66257;DHT22;53049;43.446;3.698;2023-05-27T11:19:42;26.90;1.00
66257;DHT22;53049;43.446;3.698;2023-05-27T11:22:10;26.90;1.00
66257;DHT22;53049;43.446;3.698;2023-05-27T11:24:36;27.00;1.00
66257;DHT22;53049;43.446;3.698;2023-05-27T11:27:13;26.90;1.00
66257;DHT22;53049;43.446;3.698;2023-05-27T11:29:40;26.90;1.00
66257;DHT22;53049;43.446;3.698;2023-05-27T11:32:16;26.80;1.00
66257;DHT22;53049;43.446;3.698;2023-05-27T11:34:44;26.60;1.00
66257;DHT22;53049;43.446;3.698;2023-05-27T11:37:11;26.60;1.00
66257;DHT22;53049;43.446;3.698;2023-05-27T11:39:37;26.60;1.00
66257;DHT22;53049;43.446;3.698;2023-05-27T11:42:08;26.60;1.00
66257;DHT22;53049;43.446;3.698;2023-05-27T11:44:33;26.60;1.00
66257;DHT22;53049;43.446;3.698;2023-05-27T11:47:00;26.50;1.00
66257;DHT22;53049;43.446;3.698;2023-05-27T11:49:27;26.40;1.00
66257;DHT22;53049;43.446;3.698;2023-05-27T11:51:55;26.50;1.00
66257;DHT22;53049;43.446;3.698;2023-05-27T11:54:30;26.50;1.00
66257;DHT22;53049;43.446;3.698;2023-05-27T11:56:59;26.50;1.00
66257;DHT22;53049;43.446;3.698;2023-05-27T11:59:25;26.50;1.00
66257;DHT22;53049;43.446;3.698;2023-05-27T12:01:52;26.60;1.00
66257;DHT22;53049;43.446;3.698;2023-05-27T12:04:19;26.50;1.00
66257;DHT22;53049;43.446;3.698;2023-05-27T12:06:45;26.30;1.00
66257;DHT22;53049;43.446;3.698;2023-05-27T12:09:11;26.20;1.00
66257;DHT22;53049;43.446;3.698;2023-05-27T12:11:38;26.20;1.00
66257;DHT22;53049;43.446;3.698;2023-05-27T12:14:04;26.30;1.00
66257;DHT22;53049;43.446;3.698;2023-05-27T12:16:30;26.40;1.00
66257;DHT22;53049;43.446;3.698;2023-05-27T12:18:56;26.30;1.00
66257;DHT22;53049;43.446;3.698;2023-05-27T12:21:22;26.50;1.00
66257;DHT22;53049;43.446;3.698;2023-05-27T12:23:48;26.40;1.00
66257;DHT22;53049;43.446;3.698;2023-05-27T12:26:15;26.40;1.00
66257;DHT22;53049;43.446;3.698;2023-05-27T12:28:41;26.20;1.00
66257;DHT22;53049;43.446;3.698;2023-05-27T12:31:07;26.20;1.00
66257;DHT22;53049;43.446;3.698;2023-05-27T12:33:33;26.30;1.00
66257;DHT22;53049;43.446;3.698;2023-05-27T12:35:59;26.30;1.00
66257;DHT22;53049;43.446;3.698;2023-05-27T12:38:25;26.30;1.00
66257;DHT22;53049;43.446;3.698;2023-05-27T12:40:51;26.30;1.00
66257;DHT22;53049;43.446;3.698;2023-05-27T12:43:18;26.30;1.00
66257;DHT22;53049;43.446;3.698;2023-05-27T12:45:44;26.30;1.00
66257;DHT22;53049;43.446;3.698;2023-05-27T12:48:11;26.40;1.00
66257;DHT22;53049;43.446;3.698;2023-05-27T12:50:37;26.40;1.00
66257;DHT22;53049;43.446;3.698;2023-05-27T12:53:02;26.40;1.00
66257;DHT22;53049;43.446;3.698;2023-05-27T12:55:28;26.40;1.00
66257;DHT22;53049;43.446;3.698;2023-05-27T12:57:55;26.30;1.00
66257;DHT22;53049;43.446;3.698;2023-05-27T13:00:21;26.30;1.00
66257;DHT22;53049;43.446;3.698;2023-05-27T13:02:47;26.30;1.00
66257;DHT22;53049;43.446;3.698;2023-05-27T13:05:14;26.20;1.00
66257;DHT22;53049;43.446;3.698;2023-05-27T13:07:40;26.20;1.00
66257;DHT22;53049;43.446;3.698;2023-05-27T13:10:11;26.30;1.00
66257;DHT22;53049;43.446;3.698;2023-05-27T13:12:38;26.40;1.00
66257;DHT22;53049;43.446;3.698;2023-05-27T13:15:04;26.50;1.00
66257;DHT22;53049;43.446;3.698;2023-05-27T13:17:31;26.50;1.00
66257;DHT22;53049;43.446;3.698;2023-05-27T13:19:57;26.60;1.00
66257;DHT22;53049;43.446;3.698;2023-05-27T13:22:23;26.50;1.00
66257;DHT22;53049;43.446;3.698;2023-05-27T13:24:49;26.40;1.00
66257;DHT22;53049;43.446;3.698;2023-05-27T13:27:15;26.50;1.00
66257;DHT22;53049;43.446;3.698;2023-05-27T13:29:41;26.60;1.00
66257;DHT22;53049;43.446;3.698;2023-05-27T13:32:07;26.70;1.00
66257;DHT22;53049;43.446;3.698;2023-05-27T13:34:34;26.80;1.00
66257;DHT22;53049;43.446;3.698;2023-05-27T13:37:00;26.80;1.00
66257;DHT22;53049;43.446;3.698;2023-05-27T13:39:25;26.80;1.00
66257;DHT22;53049;43.446;3.698;2023-05-27T13:41:51;26.80;1.00
66257;DHT22;53049;43.446;3.698;2023-05-27T13:44:17;26.80;1.00
66257;DHT22;53049;43.446;3.698;2023-05-27T13:46:42;26.90;1.00
66257;DHT22;53049;43.446;3.698;2023-05-27T13:49:08;26.90;1.00
66257;DHT22;53049;43.446;3.698;2023-05-27T13:51:42;27.00;1.00
66257;DHT22;53049;43.446;3.698;2023-05-27T13:54:09;26.90;1.00
66257;DHT22;53049;43.446;3.698;2023-05-27T13:56:35;26.80;1.00
66257;DHT22;53049;43.446;3.698;2023-05-27T13:59:00;26.90;1.00
66257;DHT22;53049;43.446;3.698;2023-05-27T14:01:32;26.90;1.00
66257;DHT22;53049;43.446;3.698;2023-05-27T14:04:00;27.00;1.00
66257;DHT22;53049;43.446;3.698;2023-05-27T14:06:26;27.00;1.00
66257;DHT22;53049;43.446;3.698;2023-05-27T14:08:52;27.00;1.00
66257;DHT22;53049;43.446;3.698;2023-05-27T14:11:18;27.00;1.00
66257;DHT22;53049;43.446;3.698;2023-05-27T14:13:44;26.90;1.00
66257;DHT22;53049;43.446;3.698;2023-05-27T14:16:10;26.90;1.00
66257;DHT22;53049;43.446;3.698;2023-05-27T14:18:35;26.70;1.00
66257;DHT22;53049;43.446;3.698;2023-05-27T14:21:01;26.80;1.00
66257;DHT22;53049;43.446;3.698;2023-05-27T14:23:27;26.80;1.00
66257;DHT22;53049;43.446;3.698;2023-05-27T14:25:53;26.80;1.00
66257;DHT22;53049;43.446;3.698;2023-05-27T14:28:19;26.80;1.00
66257;DHT22;53049;43.446;3.698;2023-05-27T14:30:45;26.70;1.00
66257;DHT22;53049;43.446;3.698;2023-05-27T14:33:11;26.80;1.00
66257;DHT22;53049;43.446;3.698;2023-05-27T14:35:37;26.60;1.00
66257;DHT22;53049;43.446;3.698;2023-05-27T14:38:03;26.60;1.00
66257;DHT22;53049;43.446;3.698;2023-05-27T14:40:30;26.50;1.00
66257;DHT22;53049;43.446;3.698;2023-05-27T14:42:56;26.60;1.00
66257;DHT22;53049;43.446;3.698;2023-05-27T14:45:22;26.60;1.00
66257;DHT22;53049;43.446;3.698;2023-05-27T14:47:51;26.60;1.00
66257;DHT22;53049;43.446;3.698;2023-05-27T14:50:22;26.60;1.00
66257;DHT22;53049;43.446;3.698;2023-05-27T14:52:52;26.60;1.00
66257;DHT22;53049;43.446;3.698;2023-05-27T14:55:18;26.60;1.00
66257;DHT22;53049;43.446;3.698;2023-05-27T14:57:44;26.70;1.00
66257;DHT22;53049;43.446;3.698;2023-05-27T15:00:10;26.70;1.00
66257;DHT22;53049;43.446;3.698;2023-05-27T15:02:37;26.80;1.00
66257;DHT22;53049;43.446;3.698;2023-05-27T15:05:04;26.70;1.00
66257;DHT22;53049;43.446;3.698;2023-05-27T15:07:33;26.60;1.00
66257;DHT22;53049;43.446;3.698;2023-05-27T15:10:00;26.60;1.00
66257;DHT22;53049;43.446;3.698;2023-05-27T15:12:37;26.60;1.00
66257;DHT22;53049;43.446;3.698;2023-05-27T15:15:03;26.60;1.00
66257;DHT22;53049;43.446;3.698;2023-05-27T15:17:29;26.50;1.00
66257;DHT22;53049;43.446;3.698;2023-05-27T15:19:54;26.50;1.00
66257;DHT22;53049;43.446;3.698;2023-05-27T15:22:20;26.50;1.00
66257;DHT22;53049;43.446;3.698;2023-05-27T15:24:46;26.30;1.00
66257;DHT22;53049;43.446;3.698;2023-05-27T15:27:11;26.30;1.00
66257;DHT22;53049;43.446;3.698;2023-05-27T15:29:37;26.30;1.00
66257;DHT22;53049;43.446;3.698;2023-05-27T15:32:03;26.30;1.00
66257;DHT22;53049;43.446;3.698;2023-05-27T15:34:29;26.30;1.00
66257;DHT22;53049;43.446;3.698;2023-05-27T15:36:55;26.30;1.00
66257;DHT22;53049;43.446;3.698;2023-05-27T15:39:20;26.30;1.00
66257;DHT22;53049;43.446;3.698;2023-05-27T15:41:46;26.30;1.00
66257;DHT22;53049;43.446;3.698;2023-05-27T15:44:12;26.30;1.00
66257;DHT22;53049;43.446;3.698;2023-05-27T15:46:38;26.10;1.00
66257;DHT22;53049;43.446;3.698;2023-05-27T15:49:03;26.10;1.00
66257;DHT22;53049;43.446;3.698;2023-05-27T15:51:29;26.10;1.00
66257;DHT22;53049;43.446;3.698;2023-05-27T15:53:55;26.10;1.00
66257;DHT22;53049;43.446;3.698;2023-05-27T15:56:20;26.00;1.00